Terminal Aerodrome Forecast
Issued by NWS

Current Version | Previous Version | Graphics & Text | Print | Product List | Glossary On
Versions: 1 2 3 4 5 6 7 8 9 10 11 12 13 14 15 16
000
FTUS41 KPBZ 181725
TAFMGW
TAF
KMGW 181725Z 1818/1918 22010G20KT P6SM BKN250
     FM190000 22007KT P6SM BKN080
     FM190700 24005KT P6SM -RA BKN025
     FM191500 27005KT P6SM OVC025=

USA.gov is the U.S. government's official web portal to all federal, state and local government web resources and services.